createdAt,value
2022-08-19T00:01:28.830Z,97.10
2022-08-19T00:03:57.928Z,99.27
2022-08-19T00:06:25.198Z,98.54
2022-08-19T00:08:52.490Z,98.66
2022-08-19T00:11:25.392Z,99.33
2022-08-19T00:13:52.836Z,99.86
2022-08-19T00:16:25.263Z,99.21
2022-08-19T00:18:56.346Z,98.58
2022-08-19T00:21:24.062Z,98.61
2022-08-19T00:23:51.343Z,98.39
2022-08-19T00:26:18.393Z,97.04
2022-08-19T00:28:45.353Z,94.53
2022-08-19T00:31:12.343Z,93.22
2022-08-19T00:33:39.291Z,91.77
2022-08-19T00:36:10.459Z,90.64
2022-08-19T00:38:43.929Z,92.63
2022-08-19T00:41:13.572Z,94.42
2022-08-19T00:43:41.471Z,91.81
2022-08-19T00:46:09.215Z,92.55
2022-08-19T00:48:37.542Z,91.86
2022-08-19T00:51:07.249Z,91.79
2022-08-19T00:53:35.225Z,91.34
2022-08-19T00:56:04.052Z,87.50
2022-08-19T00:58:35.255Z,88.42
2022-08-19T01:01:02.820Z,90.94
2022-08-19T01:03:56.653Z,89.71
2022-08-19T01:06:20.569Z,86.62
2022-08-19T01:08:50.214Z,86.25
2022-08-19T01:11:17.617Z,85.69
2022-08-19T01:13:49.969Z,85.44
2022-08-19T01:16:19.920Z,86.19
2022-08-19T01:18:47.611Z,86.32
2022-08-19T01:21:23.206Z,85.91
2022-08-19T01:23:51.848Z,85.33
2022-08-19T01:26:20.694Z,85.55
2022-08-19T01:28:51.024Z,86.03
2022-08-19T01:31:26.680Z,85.41
2022-08-19T01:33:56.750Z,85.23
2022-08-19T01:36:27.049Z,100.00
2022-08-19T01:38:55.799Z,85.25
2022-08-19T01:41:24.457Z,85.58
2022-08-19T01:44:13.626Z,85.55
2022-08-19T01:46:38.773Z,85.48
2022-08-19T01:49:06.351Z,85.48
2022-08-19T01:51:38.445Z,86.13
2022-08-19T01:54:08.508Z,86.63
2022-08-19T01:56:35.816Z,86.87
2022-08-19T01:59:05.767Z,86.64
2022-08-19T02:01:33.538Z,87.48
2022-08-19T02:04:01.865Z,87.78
2022-08-19T02:06:29.534Z,87.80
2022-08-19T02:08:57.525Z,88.52
2022-08-19T02:11:28.812Z,88.33
2022-08-19T02:13:56.616Z,89.17
2022-08-19T02:16:24.921Z,90.80
2022-08-19T02:18:52.640Z,91.88
2022-08-19T02:21:21.858Z,90.75
2022-08-19T02:23:49.506Z,90.28
2022-08-19T02:26:17.175Z,90.33
2022-08-19T02:28:45.989Z,90.04
2022-08-19T02:31:15.753Z,90.81
2022-08-19T02:33:43.106Z,90.22
2022-08-19T02:36:12.046Z,90.02
2022-08-19T02:38:40.709Z,90.32
2022-08-19T02:41:17.719Z,89.65
2022-08-19T02:44:22.295Z,90.22
2022-08-19T02:46:34.913Z,90.28
2022-08-19T02:49:08.421Z,90.10
2022-08-19T02:51:39.694Z,90.36
2022-08-19T02:54:08.252Z,90.26
2022-08-19T02:56:36.362Z,90.40
2022-08-19T02:59:11.279Z,90.54
2022-08-19T03:01:41.428Z,91.31
2022-08-19T03:04:10.391Z,91.57
2022-08-19T03:06:39.072Z,92.05
2022-08-19T03:09:06.686Z,92.03
2022-08-19T03:11:34.781Z,91.66
2022-08-19T03:14:05.283Z,92.02
2022-08-19T03:16:34.863Z,91.98
2022-08-19T03:19:02.870Z,100.00
2022-08-19T03:21:32.513Z,100.00
2022-08-19T03:24:01.684Z,100.00
2022-08-19T03:26:29.227Z,100.00
2022-08-19T03:28:57.810Z,100.00
2022-08-19T03:31:45.710Z,100.00
2022-08-19T03:34:18.769Z,100.00
2022-08-19T03:36:46.943Z,100.00
2022-08-19T03:39:14.621Z,91.98
2022-08-19T03:41:44.949Z,93.48
2022-08-19T03:44:17.041Z,92.79
2022-08-19T03:46:48.280Z,93.24
2022-08-19T03:49:15.963Z,93.03
2022-08-19T03:51:46.037Z,93.39
2022-08-19T03:54:15.342Z,93.66
2022-08-19T03:56:44.272Z,93.66
2022-08-19T03:59:14.478Z,94.06
2022-08-19T04:01:42.030Z,93.49
2022-08-19T04:04:10.461Z,93.49
2022-08-19T04:06:39.863Z,93.61
2022-08-19T04:09:10.480Z,100.00
2022-08-19T04:11:44.862Z,94.30
2022-08-19T04:14:15.170Z,94.01
2022-08-19T04:16:44.832Z,94.74
2022-08-19T04:19:14.430Z,95.21
2022-08-19T04:21:43.728Z,94.75
2022-08-19T04:24:11.188Z,94.56
2022-08-19T04:26:38.713Z,94.70
2022-08-19T04:29:12.153Z,94.79
2022-08-19T04:31:39.808Z,94.83
2022-08-19T04:34:08.908Z,94.63
2022-08-19T04:36:39.173Z,94.69
2022-08-19T04:39:08.999Z,95.80
2022-08-19T04:41:54.611Z,96.59
2022-08-19T04:44:21.961Z,97.20
2022-08-19T04:46:51.314Z,96.97
2022-08-19T04:49:19.986Z,98.00
2022-08-19T04:51:48.754Z,98.62
2022-08-19T04:54:19.080Z,97.88
2022-08-19T04:57:04.640Z,97.22
2022-08-19T04:59:31.678Z,98.05
2022-08-19T05:01:58.613Z,97.35
2022-08-19T05:04:25.563Z,97.61
2022-08-19T05:06:54.350Z,97.50
2022-08-19T05:09:27.112Z,96.27
2022-08-19T05:11:55.219Z,95.93
2022-08-19T05:14:22.695Z,95.94
2022-08-19T05:16:49.679Z,95.80
2022-08-19T05:19:35.114Z,96.16
2022-08-19T05:22:22.351Z,95.86
2022-08-19T05:25:11.325Z,94.35
2022-08-19T05:27:36.973Z,93.75
2022-08-19T05:30:05.320Z,93.13
2022-08-19T05:32:32.430Z,92.14
2022-08-19T05:34:59.343Z,92.09
2022-08-19T05:37:28.626Z,91.68
2022-08-19T05:39:56.366Z,90.64
2022-08-19T05:42:24.179Z,90.09
2022-08-19T05:44:52.205Z,89.12
2022-08-19T05:47:20.909Z,88.69
2022-08-19T05:49:48.711Z,100.00
2022-08-19T05:52:18.568Z,100.00
2022-08-19T05:54:50.998Z,88.69
2022-08-19T05:57:18.803Z,86.82
2022-08-19T05:59:48.736Z,86.62
2022-08-19T06:02:16.141Z,85.54
2022-08-19T06:04:46.237Z,85.50
2022-08-19T06:07:13.290Z,84.78
2022-08-19T06:09:41.214Z,83.95
2022-08-19T06:12:12.081Z,83.45
2022-08-19T06:14:41.687Z,82.60
2022-08-19T06:17:09.740Z,83.09
2022-08-19T06:19:40.639Z,82.83
2022-08-19T06:22:09.075Z,82.30
2022-08-19T06:24:36.559Z,81.60
2022-08-19T06:27:06.703Z,82.24
2022-08-19T06:29:36.208Z,80.79
2022-08-19T06:32:04.425Z,81.00
2022-08-19T06:34:34.298Z,81.98
2022-08-19T06:37:03.038Z,81.21
2022-08-19T06:39:33.836Z,81.08
2022-08-19T06:42:04.975Z,80.94
2022-08-19T06:44:42.432Z,80.24
2022-08-19T06:47:14.714Z,80.49
2022-08-19T06:49:43.213Z,79.43
2022-08-19T06:52:13.962Z,80.02
2022-08-19T06:54:55.368Z,78.58
2022-08-19T06:57:24.311Z,78.58
2022-08-19T06:59:53.613Z,77.22
2022-08-19T07:02:21.760Z,77.06
2022-08-19T07:04:52.570Z,75.34
2022-08-19T07:07:22.574Z,75.56
2022-08-19T07:09:59.103Z,74.91
2022-08-19T07:12:30.481Z,74.73
2022-08-19T07:14:59.730Z,74.32
2022-08-19T07:17:27.424Z,74.04
2022-08-19T07:19:55.924Z,73.41
2022-08-19T07:22:26.313Z,72.96
2022-08-19T07:24:53.684Z,72.27
2022-08-19T07:27:25.377Z,71.19
2022-08-19T07:29:55.864Z,70.89
2022-08-19T07:32:28.997Z,70.41
2022-08-19T07:34:57.198Z,69.41
2022-08-19T07:37:32.553Z,69.79
2022-08-19T07:40:01.271Z,69.21
2022-08-19T07:42:31.054Z,69.21
2022-08-19T07:45:00.133Z,70.14
2022-08-19T07:47:49.616Z,70.39
2022-08-19T07:50:18.122Z,69.73
2022-08-19T07:52:49.055Z,68.83
2022-08-19T07:55:40.575Z,69.47
2022-08-19T07:58:06.431Z,69.64
2022-08-19T08:00:33.708Z,68.91
2022-08-19T08:03:02.222Z,69.34
2022-08-19T08:05:49.884Z,68.39
2022-08-19T08:08:45.152Z,67.33
2022-08-19T08:11:17.610Z,66.58
2022-08-19T08:13:47.397Z,67.14
2022-08-19T08:16:33.250Z,67.04
2022-08-19T08:19:07.190Z,67.90
2022-08-19T08:21:42.761Z,67.82
2022-08-19T08:24:10.585Z,67.54
2022-08-19T08:26:38.495Z,66.73
2022-08-19T08:29:14.154Z,67.02
2022-08-19T08:31:43.961Z,67.37
2022-08-19T08:34:14.656Z,67.87
2022-08-19T08:36:46.157Z,67.39
2022-08-19T08:39:15.524Z,66.18
2022-08-19T08:41:53.845Z,66.10
2022-08-19T08:44:23.814Z,65.57
2022-08-19T08:46:56.781Z,65.42
2022-08-19T08:49:42.669Z,64.83
2022-08-19T08:52:16.945Z,64.31
2022-08-19T08:54:48.978Z,63.88
2022-08-19T08:57:29.175Z,63.86
2022-08-19T09:00:15.476Z,62.72
2022-08-19T09:02:50.935Z,62.65
2022-08-19T09:05:26.153Z,60.83
2022-08-19T09:08:03.062Z,61.48
2022-08-19T09:10:44.354Z,61.39
2022-08-19T09:13:24.076Z,60.56
2022-08-19T09:15:58.786Z,61.20
2022-08-19T09:18:29.698Z,60.54
2022-08-19T09:20:59.437Z,58.88
2022-08-19T09:23:27.791Z,58.84
2022-08-19T09:25:56.981Z,58.89
2022-08-19T09:28:27.499Z,57.50
2022-08-19T09:30:57.441Z,57.86
2022-08-19T09:33:25.424Z,58.83
2022-08-19T09:36:08.657Z,59.29
2022-08-19T09:38:43.461Z,59.95
2022-08-19T09:41:15.438Z,58.14
2022-08-19T09:43:47.881Z,56.17
2022-08-19T09:46:18.524Z,54.80
2022-08-19T09:48:49.247Z,55.48
2022-08-19T09:51:21.495Z,55.30
2022-08-19T09:53:53.071Z,55.18
2022-08-19T09:56:24.608Z,54.20
2022-08-19T09:58:52.526Z,53.60
2022-08-19T10:01:22.378Z,56.20
2022-08-19T10:03:54.258Z,57.00
2022-08-19T10:06:43.873Z,56.20
2022-08-19T10:09:12.787Z,56.32
2022-08-19T10:11:49.885Z,54.06
2022-08-19T10:14:25.660Z,54.08
2022-08-19T10:16:53.495Z,53.44
2022-08-19T10:19:25.942Z,52.82
2022-08-19T10:22:00.124Z,100.00
2022-08-19T10:24:29.414Z,50.43
2022-08-19T10:26:59.679Z,50.39
2022-08-19T10:29:32.844Z,51.45
2022-08-19T10:32:02.427Z,51.45
2022-08-19T10:34:31.945Z,52.13
2022-08-19T10:37:06.452Z,51.54
2022-08-19T10:39:43.037Z,52.06
2022-08-19T10:42:14.357Z,50.68
2022-08-19T10:44:42.255Z,49.89
2022-08-19T10:47:17.335Z,47.56
2022-08-19T10:50:12.026Z,47.37
2022-08-19T10:52:49.300Z,47.23
2022-08-19T10:55:37.835Z,48.26
2022-08-19T10:58:06.042Z,48.92
2022-08-19T11:00:34.563Z,49.75
2022-08-19T11:03:02.428Z,49.56
2022-08-19T11:05:30.021Z,47.59
2022-08-19T11:08:22.810Z,45.95
2022-08-19T11:10:52.970Z,44.04
2022-08-19T11:13:21.868Z,43.62
2022-08-19T11:15:57.562Z,44.95
2022-08-19T11:18:25.588Z,44.95
2022-08-19T11:20:54.073Z,47.43
2022-08-19T11:23:23.022Z,47.43
2022-08-19T11:25:51.490Z,44.78
2022-08-19T11:28:19.507Z,43.54
2022-08-19T11:30:47.848Z,42.17
2022-08-19T11:33:17.168Z,42.01
2022-08-19T11:35:46.529Z,42.48
2022-08-19T11:38:16.220Z,42.83
2022-08-19T11:40:45.908Z,43.79
2022-08-19T11:43:14.520Z,42.53
2022-08-19T11:45:44.241Z,41.51
2022-08-19T11:48:12.199Z,41.48
2022-08-19T11:50:43.786Z,41.25
2022-08-19T11:53:11.846Z,40.85
2022-08-19T11:55:44.252Z,39.58
2022-08-19T11:58:18.748Z,41.32
2022-08-19T12:00:46.851Z,42.31
2022-08-19T12:03:15.752Z,42.85
2022-08-19T12:05:43.727Z,41.19
2022-08-19T12:08:13.711Z,40.49
2022-08-19T12:10:43.409Z,39.34
2022-08-19T12:13:16.878Z,39.16
2022-08-19T12:15:46.887Z,38.29
2022-08-19T12:18:15.330Z,37.62
2022-08-19T12:20:44.226Z,37.92
2022-08-19T12:23:12.052Z,38.92
2022-08-19T12:25:51.310Z,40.14
2022-08-19T12:28:22.292Z,41.37
2022-08-19T12:30:52.100Z,40.40
2022-08-19T12:33:20.799Z,37.66
2022-08-19T12:35:48.153Z,38.45
2022-08-19T12:38:16.314Z,38.64
2022-08-19T12:40:48.763Z,40.25
2022-08-19T12:43:17.122Z,40.49
2022-08-19T12:45:47.060Z,41.09
2022-08-19T12:48:33.641Z,40.86
2022-08-19T12:51:07.047Z,39.67
2022-08-19T12:53:35.000Z,40.40
2022-08-19T12:56:11.567Z,41.07
2022-08-19T12:58:41.124Z,40.44
2022-08-19T13:01:22.828Z,38.76
2022-08-19T13:03:53.966Z,38.00
2022-08-19T13:06:24.391Z,37.63
2022-08-19T13:08:56.582Z,36.80
2022-08-19T13:11:29.228Z,35.80
2022-08-19T13:13:57.561Z,34.92
2022-08-19T13:16:29.421Z,36.25
2022-08-19T13:18:59.703Z,37.44
2022-08-19T13:21:31.997Z,38.18
2022-08-19T13:24:00.621Z,38.29
2022-08-19T13:26:29.011Z,39.18
2022-08-19T13:29:16.347Z,38.88
2022-08-19T13:32:05.372Z,39.00
2022-08-19T13:34:39.991Z,39.65
2022-08-19T13:37:07.887Z,39.83
2022-08-19T13:39:37.681Z,38.81
2022-08-19T13:42:08.605Z,37.42
2022-08-19T13:44:37.731Z,36.14
2022-08-19T13:47:08.776Z,34.60
2022-08-19T13:49:37.972Z,33.77
2022-08-19T13:52:06.976Z,33.53
2022-08-19T13:54:35.550Z,33.69
2022-08-19T13:57:03.912Z,32.84
2022-08-19T13:59:32.556Z,33.88
2022-08-19T14:02:01.246Z,33.06
2022-08-19T14:04:30.833Z,31.92
2022-08-19T14:06:58.535Z,33.66
2022-08-19T14:09:25.958Z,33.37
2022-08-19T14:11:53.935Z,32.19
2022-08-19T14:14:22.246Z,31.03
2022-08-19T14:16:51.260Z,31.93
2022-08-19T14:19:19.095Z,32.25
2022-08-19T14:21:49.120Z,31.37
2022-08-19T14:24:17.051Z,31.03
2022-08-19T14:26:44.997Z,30.27
2022-08-19T14:29:12.740Z,29.52
2022-08-19T14:31:42.836Z,30.16
2022-08-19T14:34:11.857Z,30.66
2022-08-19T14:36:40.282Z,31.83
2022-08-19T14:39:10.974Z,30.96
2022-08-19T14:41:42.227Z,31.78
2022-08-19T14:44:13.899Z,31.49
2022-08-19T14:46:48.567Z,31.62
2022-08-19T14:49:17.888Z,30.98
2022-08-19T14:51:48.880Z,30.93
2022-08-19T14:54:18.498Z,30.33
2022-08-19T14:56:46.690Z,31.18
2022-08-19T14:59:14.957Z,31.00
2022-08-19T15:01:43.756Z,31.96
2022-08-19T15:04:12.132Z,33.17
2022-08-19T15:06:39.948Z,32.35
2022-08-19T15:09:07.905Z,32.73
2022-08-19T15:11:38.720Z,31.89
2022-08-19T15:14:07.413Z,31.66
2022-08-19T15:16:35.713Z,31.72
2022-08-19T15:19:04.441Z,32.53
2022-08-19T15:21:33.127Z,31.83
2022-08-19T15:24:02.501Z,31.60
2022-08-19T15:26:33.147Z,31.30
2022-08-19T15:29:03.711Z,31.68
2022-08-19T15:31:38.047Z,31.79
2022-08-19T15:34:10.073Z,31.72
2022-08-19T15:36:38.281Z,31.99
2022-08-19T15:39:07.554Z,31.80
2022-08-19T15:41:34.923Z,32.08
2022-08-19T15:44:11.033Z,31.70
2022-08-19T15:46:41.323Z,31.46
2022-08-19T15:49:09.283Z,31.11
2022-08-19T15:51:37.145Z,31.24
2022-08-19T15:54:08.447Z,31.63
2022-08-19T15:56:57.856Z,31.29
2022-08-19T15:59:47.517Z,32.02
2022-08-19T16:02:33.701Z,31.25
2022-08-19T16:05:19.128Z,31.57
2022-08-19T16:07:47.698Z,31.57
2022-08-19T16:10:26.519Z,32.26
2022-08-19T16:12:56.921Z,32.29
2022-08-19T16:15:27.874Z,33.09
2022-08-19T16:17:57.294Z,34.23
2022-08-19T16:20:26.489Z,34.61
2022-08-19T16:22:54.887Z,35.04
2022-08-19T16:25:27.708Z,34.93
2022-08-19T16:28:06.443Z,35.04
2022-08-19T16:30:37.802Z,34.79
2022-08-19T16:33:04.907Z,35.22
2022-08-19T16:35:32.167Z,35.55
2022-08-19T16:37:59.060Z,35.55
2022-08-19T16:40:26.214Z,35.15
2022-08-19T16:42:53.676Z,35.64
2022-08-19T16:45:22.046Z,34.88
2022-08-19T16:47:51.118Z,35.17
2022-08-19T16:50:25.359Z,35.16
2022-08-19T16:52:59.063Z,35.57
2022-08-19T16:55:28.410Z,35.76
2022-08-19T16:57:55.666Z,35.70
2022-08-19T17:00:23.377Z,35.64
2022-08-19T17:02:52.294Z,36.23
2022-08-19T17:05:19.815Z,36.53
2022-08-19T17:07:46.816Z,37.04
2022-08-19T17:10:15.297Z,37.11
2022-08-19T17:12:42.741Z,36.69
2022-08-19T17:15:10.696Z,36.57
2022-08-19T17:17:37.695Z,36.54
2022-08-19T17:20:08.162Z,37.06
2022-08-19T17:22:37.187Z,37.46
2022-08-19T17:25:04.857Z,37.95
2022-08-19T17:27:32.633Z,38.21
2022-08-19T17:30:00.864Z,38.63
2022-08-19T17:32:28.097Z,38.72
2022-08-19T17:34:55.359Z,38.96
2022-08-19T17:37:23.708Z,39.07
2022-08-19T17:39:50.971Z,39.29
2022-08-19T17:42:18.045Z,39.60
2022-08-19T17:44:50.418Z,39.18
2022-08-19T17:47:18.511Z,39.58
2022-08-19T17:49:45.691Z,39.98
2022-08-19T17:52:12.695Z,39.88
2022-08-19T17:54:41.084Z,40.15
2022-08-19T17:57:09.720Z,40.25
2022-08-19T17:59:37.672Z,40.68
2022-08-19T18:02:05.416Z,40.94
2022-08-19T18:04:33.583Z,41.08
2022-08-19T18:07:04.620Z,41.00
2022-08-19T18:09:41.534Z,41.05
2022-08-19T18:12:12.219Z,41.48
2022-08-19T18:14:40.644Z,41.45
2022-08-19T18:17:10.441Z,41.74
2022-08-19T18:19:41.113Z,42.21
2022-08-19T18:22:09.437Z,42.21
2022-08-19T18:24:38.262Z,41.96
2022-08-19T18:27:06.954Z,42.26
2022-08-19T18:29:37.075Z,42.69
2022-08-19T18:32:04.743Z,42.58
2022-08-19T18:34:31.758Z,43.11
2022-08-19T18:36:58.869Z,42.93
2022-08-19T18:39:45.170Z,43.17
2022-08-19T18:42:33.292Z,43.42
2022-08-19T18:45:20.350Z,44.03
2022-08-19T18:48:06.062Z,43.74
2022-08-19T18:50:34.815Z,44.46
2022-08-19T18:53:02.324Z,44.66
2022-08-19T18:55:29.527Z,44.56
2022-08-19T18:57:56.794Z,44.63
2022-08-19T19:00:26.251Z,44.33
2022-08-19T19:02:54.837Z,45.16
2022-08-19T19:05:36.849Z,45.47
2022-08-19T19:08:04.191Z,45.94
2022-08-19T19:10:31.315Z,46.06
2022-08-19T19:12:59.180Z,46.17
2022-08-19T19:15:29.679Z,46.34
2022-08-19T19:17:56.894Z,46.79
2022-08-19T19:23:15.489Z,47.33
2022-08-19T19:25:49.635Z,47.38
2022-08-19T19:28:18.011Z,47.68
2022-08-19T19:30:46.886Z,47.88
2022-08-19T19:33:14.079Z,48.17
2022-08-19T19:35:44.867Z,48.34
2022-08-19T19:38:14.506Z,48.41
2022-08-19T19:40:41.860Z,48.88
2022-08-19T19:43:09.023Z,49.46
2022-08-19T19:45:38.179Z,49.28
2022-08-19T19:48:08.456Z,49.65
2022-08-19T19:50:35.541Z,49.58
2022-08-19T19:53:02.614Z,49.82
2022-08-19T19:55:29.692Z,50.03
2022-08-19T19:57:57.890Z,50.30
2022-08-19T20:00:25.611Z,50.29
2022-08-19T20:02:54.772Z,50.23
2022-08-19T20:05:23.743Z,50.57
2022-08-19T20:08:27.094Z,50.64
2022-08-19T20:10:54.214Z,50.66
2022-08-19T20:13:21.961Z,51.00
2022-08-19T20:15:48.989Z,51.08
2022-08-19T20:18:15.938Z,50.92
2022-08-19T20:20:46.579Z,51.43
2022-08-19T20:23:13.655Z,51.37
2022-08-19T20:25:40.955Z,51.41
2022-08-19T20:28:08.212Z,51.49
2022-08-19T20:30:36.231Z,51.69
2022-08-19T20:33:06.985Z,51.90
2022-08-19T20:35:36.054Z,52.06
2022-08-19T20:38:08.876Z,52.30
2022-08-19T20:40:36.166Z,52.03
2022-08-19T20:43:09.155Z,52.40
2022-08-19T20:45:37.298Z,52.41
2022-08-19T20:48:07.466Z,52.69
2022-08-19T20:50:36.364Z,52.96
2022-08-19T20:53:13.125Z,53.44
2022-08-19T20:55:40.410Z,53.39
2022-08-19T20:58:12.253Z,53.55
2022-08-19T21:00:39.706Z,53.96
2022-08-19T21:03:07.386Z,54.17
2022-08-19T21:09:36.533Z,54.94
2022-08-19T21:12:04.597Z,54.82
2022-08-19T21:14:31.959Z,55.00
2022-08-19T21:16:59.179Z,55.39
2022-08-19T21:19:26.239Z,55.54
2022-08-19T21:21:53.323Z,55.84
2022-08-19T21:24:21.160Z,56.54
2022-08-19T21:26:54.784Z,56.33
2022-08-19T21:29:22.138Z,57.00
2022-08-19T21:31:50.289Z,57.22
2022-08-19T21:34:17.658Z,57.65
2022-08-19T21:36:44.725Z,58.04
2022-08-19T21:39:11.851Z,58.92
2022-08-19T21:41:43.374Z,59.70
2022-08-19T21:44:13.380Z,60.00
2022-08-19T21:46:40.687Z,60.71
2022-08-19T21:49:07.829Z,61.03
2022-08-19T21:51:35.002Z,61.59
2022-08-19T21:54:02.157Z,61.76
2022-08-19T21:56:29.863Z,61.70
2022-08-19T21:58:56.992Z,61.49
2022-08-19T22:01:25.885Z,60.74
2022-08-19T22:03:53.064Z,61.16
2022-08-19T22:06:23.198Z,61.06
2022-08-19T22:08:50.153Z,61.34
2022-08-19T22:11:17.322Z,61.59
2022-08-19T22:13:44.948Z,61.57
2022-08-19T22:16:14.269Z,61.86
2022-08-19T22:22:24.206Z,62.24
2022-08-19T22:24:51.804Z,62.57
2022-08-19T22:27:19.473Z,62.53
2022-08-19T22:29:47.323Z,63.01
2022-08-19T22:32:28.249Z,63.39
2022-08-19T22:34:58.200Z,63.65
2022-08-19T22:37:29.353Z,63.64
2022-08-19T22:39:56.563Z,63.59
2022-08-19T22:42:25.373Z,63.58
2022-08-19T22:45:01.870Z,64.27
2022-08-19T22:47:32.014Z,64.50
2022-08-19T22:50:02.329Z,64.70
2022-08-19T22:52:31.811Z,65.19
2022-08-19T22:55:01.226Z,65.79
2022-08-19T22:57:28.603Z,65.58
2022-08-19T22:59:58.922Z,66.41
2022-08-19T23:02:31.521Z,66.93
2022-08-19T23:05:01.747Z,67.18
2022-08-19T23:07:30.494Z,67.59
2022-08-19T23:09:58.050Z,67.54
2022-08-19T23:12:31.012Z,67.92
2022-08-19T23:15:03.302Z,68.38
2022-08-19T23:17:30.209Z,68.66
2022-08-19T23:19:57.147Z,68.91
2022-08-19T23:22:25.019Z,69.37
2022-08-19T23:24:56.108Z,69.51
2022-08-19T23:27:41.685Z,69.86
2022-08-19T23:30:28.612Z,70.16
2022-08-19T23:32:56.875Z,70.78
2022-08-19T23:35:24.620Z,70.99
2022-08-19T23:37:52.232Z,71.85
2022-08-19T23:40:21.968Z,72.03
2022-08-19T23:42:49.537Z,72.70
2022-08-19T23:45:23.933Z,72.88
2022-08-19T23:47:51.769Z,72.81
2022-08-19T23:50:20.734Z,73.18
2022-08-19T23:52:50.327Z,73.18
2022-08-19T23:55:18.899Z,75.03
2022-08-19T23:57:47.269Z,75.43
